ロングイェールビーン の空港の天気 - METARとTAF

スヴァールバル空港 ( ENSB / LYR ) - スヴァールバル諸島・ヤンマイエン島 ロングイェールビーン
飛行場実況気象(Metar)
観測時間09/23 12:50 CEST (09/23 10:50 UTC)
風向・風速南西 10m/s 瞬間風速15m/s
視程10km以上
天気現象
少しの雲 雲底高度 370m
全天の4割程度の雲 雲底高度 910m
全天の8割程度の雲 雲底高度 1070m
気温9℃
湿度66%
気圧1011hPa
METARENSB 231050Z 23020G30KT 9999 FEW012 SCT030 BKN035 09/03 Q1011 RMK WIND 1400FT 22028KT
過去の天気等 Google飛行場航空写真 Wunderground天気予報

過去48時間のMETAR

飛行場予報(TAF)
発表時間: -
23日8時 CEST ~ 23日20時 CEST に一時的に
風向・風速西南西 10m/s
23日10時 CEST ~ 24日8時 CEST に一時的に
全天の8割程度の雲 雲底高度 370m
TAF AMD ENSB 2306/2406 23008KT 9999 -RA FEW005 BKN030
TEMPO 2306/2318 25020KT
TEMPO 2308/2406 BKN012